Nearby METAR Reports

 

KSFZ - Pawtucket, Rhode Island, USA
Distance from station: S 7mi, 11km
Updated: Thu, 09-Apr-2020 5:56pm EDT
Overcast
Overcast
 Wind from NW
Wind: NW 13 mph , 20 km/h, Gust: 21 mph , 33 km/h
Temperature: 46°F , 8°C
Wind Chill: 40°F , 4°C
Dew Point: 43°F , 6°C
Humidity: 87%
Barometer: 29.06 inHg , 984.1 hPa
Clouds: Overcast
Visibility: 10 miles , 16 km
Cloud details: Few Clouds 4200 ft
Mostly cloudy 5500 ft
Overcast 7000 ft
2020/04/09 21:56 KSFZ 092156Z AUTO 32011G18KT 10SM FEW042 BKN055 OVC070 08/06 A2906 RMK AO2 PK WND 28028/2120 RAE47 SLP791 P0002 T00780056
KPVD - Providence/Green, Rhode Island, USA
Distance from station: SSE 21mi, 34km
Updated: Thu, 09-Apr-2020 5:51pm EDT
Mostly cloudy
Mostly cloudy
 Wind from NW
Wind: NW 17 mph , 28 km/h, Gust: 23 mph , 37 km/h
Temperature: 48°F , 9°C
Wind Chill: 42°F , 6°C
Dew Point: 41°F , 5°C
Humidity: 76%
Barometer: 29.07 inHg , 984.4 hPa
Clouds: Mostly cloudy
Visibility: 10 miles , 16 km
Cloud details: Few Clouds 5000 ft
Partly cloudy 8000 ft
Mostly cloudy 11000 ft
2020/04/09 21:51 KPVD 092151Z 31015G20KT 10SM FEW050 SCT080 BKN110 09/05 A2907 RMK AO2 PK WND 28032/2123 RAE39 SLP843 P0004 T00940050
 
KORH - Worcester, Massachusetts, USA
Distance from station: NW 25mi, 40km
Updated: Thu, 09-Apr-2020 5:54pm EDT
Overcast
Overcast
 Wind from WNW
Wind: WNW 14 mph , 22 km/h, Gust: 28 mph , 44 km/h
Temperature: 45°F , 7°C
Wind Chill: 39°F , 4°C
Dew Point: 39°F , 4°C
Humidity: 81%
Barometer: 29.08 inHg , 984.8 hPa
Clouds: Overcast
Visibility: 10 miles , 16 km
Cloud details: Mostly cloudy 2300 ft
Mostly cloudy 7000 ft
Overcast 8500 ft
2020/04/09 21:54 KORH 092154Z 29012G24KT 10SM BKN023 BKN070 OVC085 07/04 A2908 RMK AO2 PK WND 28030/2110 RAE37 SLP852 P0004 T00720044
KTAN - Taunton, Massachusetts, USA
Distance from station: ESE 28mi, 44km
Updated: Thu, 09-Apr-2020 5:52pm EDT
Light rain, Overcast
Light rain, Overcast
 Wind from W
Wind: W 14 mph , 22 km/h, Gust: 25 mph , 41 km/h
Temperature: 48°F , 9°C
Wind Chill: 42°F , 6°C
Dew Point: 45°F , 7°C
Humidity: 87%
Barometer: 29.04 inHg , 983.4 hPa
Summary: Light rain
Clouds: Overcast
Visibility: 10 miles , 16 km
Cloud details: Overcast 5500 ft
2020/04/09 21:52 KTAN 092152Z AUTO 28012G22KT 10SM -RA OVC055 09/07 A2904 RMK AO2 SLP834 P0004 T00940067
 
KOQU - N. Kingston/Quon, Rhode Island, USA
Distance from station: S 29mi, 47km
Updated: Thu, 09-Apr-2020 5:50pm EDT
Mostly cloudy
Mostly cloudy
 Wind from NW
Wind: NW 14 mph , 22 km/h, Gust: 26 mph , 43 km/h
Temperature: 50°F , 10°C
Wind Chill: 45°F , 7°C
Dew Point: 45°F , 7°C
Humidity: 82%
Barometer: 29.07 inHg , 984.4 hPa
Clouds: Mostly cloudy
Visibility: 10 miles , 16 km
Cloud details: Partly cloudy 5500 ft
Mostly cloudy 7500 ft
2020/04/09 21:50 KOQU 092150Z 32012G23KT 10SM SCT055 BKN075 10/07 A2907
KBOS - Boston, Massachusetts, USA
Distance from station: NE 35mi, 57km
Updated: Thu, 09-Apr-2020 5:54pm EDT
Rain, Mist, Overcast
Rain, Mist, Overcast
 Wind from WNW
Wind: WNW 16 mph , 26 km/h
Temperature: 46°F , 8°C
Wind Chill: 39°F , 4°C
Dew Point: 45°F , 7°C
Humidity: 93%
Barometer: 29.04 inHg , 983.4 hPa
Summary: Rain, Mist
Clouds: Overcast
Visibility: 5 miles , 8 km
Cloud details: Partly cloudy 900 ft
Mostly cloudy 1200 ft
Overcast 2400 ft
2020/04/09 21:54 KBOS 092154Z 29014KT 5SM RA BR SCT009 BKN012 OVC024 08/07 A2904 RMK AO2 WSHFT 2128 SLP833 P0005 T00830067 $
 
KUUU - Newport, Rhode Island, USA
Distance from station: SSE 36mi, 57km
Updated: Thu, 09-Apr-2020 5:53pm EDT
Mostly cloudy
Mostly cloudy
 Wind from NW
Wind: NW 13 mph , 20 km/h, Gust: 31 mph , 50 km/h
Temperature: 52°F , 11°C
Dew Point: 43°F , 6°C
Humidity: 72%
Barometer: 29.08 inHg , 984.8 hPa
Clouds: Mostly cloudy
Visibility: 10 miles , 16 km
Cloud details: Few Clouds 1600 ft
Partly cloudy 3000 ft
Mostly cloudy 4600 ft
2020/04/09 21:53 KUUU 092153Z AUTO 31011G27KT 10SM FEW016 SCT030 BKN046 11/06 A2908 RMK AO2 PK WND 30027/2145 RAE50 SLP845 P0005 T01060056
KPYM - Plymouth, Massachusetts, USA
Distance from station: E 41mi, 66km
Updated: Thu, 09-Apr-2020 5:52pm EDT
Light rain, Overcast
Light rain, Overcast
 Wind from W
Wind: W 20 mph , 31 km/h, Gust: 30 mph , 48 km/h
Temperature: 50°F , 10°C
Wind Chill: 44°F , 7°C
Dew Point: 46°F , 8°C
Humidity: 88%
Barometer: 29.01 inHg , 982.4 hPa
Summary: Light rain
Clouds: Overcast
Visibility: 10 miles , 16 km
Cloud details: Mostly cloudy 1400 ft
Mostly cloudy 2400 ft
Overcast 5500 ft
2020/04/09 21:52 KPYM 092152Z AUTO 27017G26KT 10SM -RA BKN014 BKN024 OVC055 10/08 A2901 RMK AO2 PK WND 26026/2150 SLP824 P0003 T01000083
 
KWST - Westerly, Rhode Island, USA
Distance from station: SSW 48mi, 78km
Updated: Thu, 09-Apr-2020 5:53pm EDT
Partly cloudy
Partly cloudy
 Wind from WNW
Wind: WNW 8 mph , 13 km/h
Temperature: 54°F , 12°C
Dew Point: 43°F , 6°C
Humidity: 67%
Barometer: 29.14 inHg , 986.8 hPa
Clouds: Partly cloudy
Visibility: 10 miles , 16 km
Cloud details: Partly cloudy 11000 ft
2020/04/09 21:53 KWST 092153Z AUTO 29007KT 10SM SCT110 12/06 A2914 RMK AO2 PK WND 31026/2113 WSHFT 2105 RAE13 PRESRR SLP867 P0001 T01220056